Time;durP1;ratioP1;P1;durP2;ratioP2;P2;SDS_P1;SDS_P2;PMS_P1;PMS_P2;Temp;Humidity;BMP_temperature;BMP_pressure;BME280_temperature;BME280_humidity;BME280_pressure;Samples;Min_cycle;Max_cycle;Signal;HPM_P1;HPM_P2
2023/09/17 00:01:24;;;;;;;3.83;2.58;;;15.50;99.90;;;;;;5053347;28;20096;-72
2023/09/17 00:03:51;;;;;;;3.90;2.35;;;15.40;99.90;;;;;;5052914;28;20371;-72
2023/09/17 00:06:17;;;;;;;5.20;2.63;;;15.40;99.90;;;;;;5052915;28;20032;-72
2023/09/17 00:08:43;;;;;;;3.97;2.67;;;15.40;99.90;;;;;;5052934;28;20096;-72
2023/09/17 00:11:09;;;;;;;2.78;2.20;;;15.40;99.90;;;;;;5052999;28;20484;-72
2023/09/17 00:13:35;;;;;;;3.17;2.33;;;15.30;99.90;;;;;;5053591;28;20032;-72
2023/09/17 00:16:01;;;;;;;3.25;2.17;;;15.30;99.90;;;;;;5052824;28;20104;-72
2023/09/17 00:18:28;;;;;;;5.13;2.15;;;15.30;99.90;;;;;;5052878;28;20053;-72
2023/09/17 00:20:53;;;;;;;3.20;2.20;;;15.20;99.90;;;;;;5053469;28;20445;-72
2023/09/17 00:23:19;;;;;;;2.63;2.00;;;15.20;99.90;;;;;;5052574;28;20060;-73
2023/09/17 00:25:45;;;;;;;3.97;1.90;;;15.20;99.90;;;;;;5051813;28;20103;-73
2023/09/17 00:28:10;;;;;;;3.40;2.35;;;15.20;99.90;;;;;;5034350;28;20029;-72
2023/09/17 00:30:36;;;;;;;3.70;2.33;;;15.10;99.90;;;;;;5056092;28;20074;-72
2023/09/17 00:33:02;;;;;;;3.72;2.25;;;15.10;99.90;;;;;;5037650;28;20048;-74
2023/09/17 00:35:28;;;;;;;3.20;2.40;;;15.00;99.90;;;;;;5038298;28;20083;-72
2023/09/17 00:37:53;;;;;;;3.47;2.20;;;15.00;99.90;;;;;;5056629;28;20381;-72
2023/09/17 00:40:27;;;;;;;3.90;2.47;;;15.00;99.90;;;;;;5038742;28;20033;-72
2023/09/17 00:42:53;;;;;;;3.08;2.30;;;14.90;99.90;;;;;;5056734;28;20036;-72
2023/09/17 00:45:19;;;;;;;3.42;2.67;;;14.90;99.90;;;;;;5038537;28;20025;-72
2023/09/17 00:47:44;;;;;;;3.00;2.10;;;14.90;99.90;;;;;;5056158;28;20124;-72
2023/09/17 00:50:10;;;;;;;3.67;2.38;;;14.80;99.90;;;;;;5056269;28;20025;-72
2023/09/17 00:52:36;;;;;;;4.00;2.40;;;14.80;99.90;;;;;;5056454;28;20480;-72
2023/09/17 00:55:03;;;;;;;4.18;2.60;;;14.80;99.90;;;;;;5056545;28;20029;-72
2023/09/17 00:57:30;;;;;;;4.60;2.30;;;14.70;99.90;;;;;;5056375;28;20036;-72
2023/09/17 00:59:56;;;;;;;4.70;2.72;;;14.60;99.90;;;;;;5057061;28;20025;-72
2023/09/17 01:02:24;;;;;;;4.93;2.38;;;14.50;99.90;;;;;;5057152;28;20079;-72
2023/09/17 01:04:52;;;;;;;5.47;2.42;;;14.40;99.90;;;;;;5055116;28;20028;-72
2023/09/17 01:07:19;;;;;;;3.25;2.47;;;14.50;99.90;;;;;;5055732;28;20080;-72
2023/09/17 01:09:45;;;;;;;3.00;2.03;;;14.40;99.90;;;;;;5055763;28;20044;-72
2023/09/17 01:12:12;;;;;;;3.88;2.05;;;14.40;99.90;;;;;;5060608;28;20439;-72
2023/09/17 01:14:38;;;;;;;4.65;2.13;;;14.40;99.90;;;;;;5064038;28;20028;-72
2023/09/17 01:17:09;;;;;;;5.28;2.28;;;14.40;99.90;;;;;;5056280;28;20101;-72
2023/09/17 01:19:36;;;;;;;5.85;2.60;;;14.40;99.90;;;;;;5038035;28;20120;-72
2023/09/17 01:22:06;;;;;;;4.68;2.85;;;14.30;99.90;;;;;;5055821;28;20036;-72
2023/09/17 01:25:05;;;;;;;4.70;2.55;;;14.30;99.90;;;;;;5058390;28;20368;-73
2023/09/17 01:27:35;;;;;;;3.75;2.47;;;14.30;99.90;;;;;;5072685;28;20120;-72
2023/09/17 01:30:04;;;;;;;5.68;2.50;;;14.30;99.90;;;;;;5075661;28;20028;-72
2023/09/17 01:32:30;;;;;;;2.85;2.15;;;14.30;99.90;;;;;;5075784;28;20477;-72
2023/09/17 01:34:56;;;;;;;5.30;2.42;;;14.30;99.90;;;;;;5075363;28;20036;-72
2023/09/17 01:37:28;;;;;;;3.40;2.20;;;14.30;99.90;;;;;;5075812;28;20028;-72
2023/09/17 01:40:10;;;;;;;3.47;2.30;;;14.20;99.90;;;;;;5074012;28;20074;-73
2023/09/17 01:42:38;;;;;;;3.47;2.58;;;14.10;99.90;;;;;;5074626;28;20028;-72
2023/09/17 01:45:07;;;;;;;4.10;2.70;;;14.10;99.90;;;;;;5057620;28;20027;-72
2023/09/17 01:47:34;;;;;;;3.35;2.20;;;14.10;99.90;;;;;;5074992;28;20052;-73
2023/09/17 01:50:00;;;;;;;3.85;1.95;;;14.10;99.90;;;;;;5075013;28;20029;-73
2023/09/17 01:52:32;;;;;;;3.97;2.40;;;14.00;99.90;;;;;;5075051;28;20416;-72
2023/09/17 01:54:58;;;;;;;4.47;2.47;;;14.00;99.90;;;;;;5075256;28;20025;-72
2023/09/17 01:57:24;;;;;;;4.07;2.40;;;13.90;99.90;;;;;;5075040;28;20039;-72
2023/09/17 01:59:49;;;;;;;4.35;2.20;;;13.80;99.90;;;;;;5074847;28;20028;-72
2023/09/17 02:02:15;;;;;;;3.03;2.25;;;13.80;99.90;;;;;;5074771;28;20373;-72
2023/09/17 02:04:41;;;;;;;4.40;2.40;;;13.70;99.90;;;;;;5075068;28;20029;-73
2023/09/17 02:07:07;;;;;;;3.42;2.35;;;13.70;99.90;;;;;;5075030;28;20067;-72
2023/09/17 02:09:33;;;;;;;4.35;2.47;;;13.80;99.90;;;;;;5074878;28;20107;-73
2023/09/17 02:11:59;;;;;;;3.33;2.13;;;13.70;99.90;;;;;;5074602;28;20116;-72
2023/09/17 02:14:24;;;;;;;4.93;2.33;;;13.70;99.90;;;;;;5074467;28;20025;-72
2023/09/17 02:16:51;;;;;;;3.67;2.13;;;13.60;99.90;;;;;;5074519;28;20036;-72
2023/09/17 02:19:17;;;;;;;2.85;2.00;;;13.60;99.90;;;;;;5074490;28;20162;-72
2023/09/17 02:21:42;;;;;;;5.30;2.17;;;13.60;99.90;;;;;;5074759;28;20104;-72
2023/09/17 02:24:08;;;;;;;3.30;2.30;;;13.60;99.90;;;;;;5074237;28;20183;-73
2023/09/17 02:26:34;;;;;;;3.47;2.20;;;13.50;99.90;;;;;;5074361;28;20128;-72
2023/09/17 02:29:00;;;;;;;4.95;2.30;;;13.50;99.90;;;;;;5074566;28;20086;-72
2023/09/17 02:31:25;;;;;;;3.63;2.60;;;13.50;99.90;;;;;;5074498;28;20465;-72
2023/09/17 02:33:51;;;;;;;4.10;2.35;;;13.50;99.90;;;;;;5074162;28;20395;-73
2023/09/17 02:36:17;;;;;;;3.40;2.42;;;13.50;99.90;;;;;;5074025;28;20472;-72
2023/09/17 02:38:42;;;;;;;3.20;2.05;;;13.50;99.90;;;;;;5074209;28;20043;-73
2023/09/17 02:41:08;;;;;;;2.97;1.92;;;13.50;99.90;;;;;;5074073;28;20029;-72
2023/09/17 02:43:36;;;;;;;3.85;2.20;;;13.40;99.90;;;;;;5056098;28;20051;-73
2023/09/17 02:46:03;;;;;;;2.65;1.98;;;13.40;99.90;;;;;;5074002;28;20101;-73
2023/09/17 02:48:32;;;;;;;5.43;2.15;;;13.40;99.90;;;;;;5055969;28;20064;-73
2023/09/17 02:50:58;;;;;;;3.50;2.25;;;13.40;99.90;;;;;;5074065;28;20104;-73
2023/09/17 02:53:23;;;;;;;3.80;2.60;;;13.40;99.90;;;;;;5073851;28;20025;-72
2023/09/17 02:55:49;;;;;;;3.67;2.47;;;13.40;99.90;;;;;;5073689;28;20040;-73
2023/09/17 02:58:15;;;;;;;2.97;2.28;;;13.40;99.90;;;;;;5073771;28;20120;-73
2023/09/17 03:00:43;;;;;;;3.60;2.53;;;13.30;99.90;;;;;;5073771;28;20035;-73
2023/09/17 03:03:08;;;;;;;3.30;1.92;;;13.30;99.90;;;;;;5073769;28;20028;-73
2023/09/17 03:05:34;;;;;;;3.58;2.40;;;13.30;99.90;;;;;;5073610;28;20029;-72
2023/09/17 03:08:00;;;;;;;5.47;2.22;;;13.30;99.90;;;;;;5074039;28;20047;-73
2023/09/17 03:10:26;;;;;;;3.83;2.30;;;13.20;99.90;;;;;;5073675;28;20028;-72
2023/09/17 03:12:52;;;;;;;4.35;2.47;;;13.20;99.90;;;;;;5073669;28;20480;-73
2023/09/17 03:15:18;;;;;;;4.53;2.30;;;13.20;99.90;;;;;;5073457;28;20039;-73
2023/09/17 03:17:44;;;;;;;2.90;2.03;;;13.30;99.90;;;;;;5055724;28;20107;-73
2023/09/17 03:20:22;;;;;;;2.85;2.08;;;13.20;99.90;;;;;;5073495;28;20013;-72
2023/09/17 03:22:48;;;;;;;5.30;2.42;;;13.20;99.90;;;;;;5073832;28;20024;-72
2023/09/17 03:25:14;;;;;;;4.15;2.05;;;13.20;99.90;;;;;;5073533;28;20039;-72
2023/09/17 03:27:43;;;;;;;3.88;2.72;;;13.20;99.90;;;;;;5073788;28;20024;-72
2023/09/17 03:30:09;;;;;;;3.33;2.00;;;13.20;99.90;;;;;;5073437;28;20116;-72
2023/09/17 03:32:35;;;;;;;3.80;2.38;;;13.10;99.90;;;;;;5073360;28;20032;-72
2023/09/17 03:35:01;;;;;;;3.53;2.25;;;13.10;99.90;;;;;;5073315;28;20107;-73
2023/09/17 03:37:27;;;;;;;3.55;2.50;;;13.10;99.90;;;;;;5073262;28;20035;-73
2023/09/17 03:40:07;;;;;;;3.40;2.35;;;13.10;99.90;;;;;;5073341;28;20103;-73
2023/09/17 03:42:34;;;;;;;3.35;2.17;;;13.10;99.90;;;;;;5073289;28;20388;-73
2023/09/17 03:45:00;;;;;;;2.88;1.98;;;13.10;99.90;;;;;;5055126;28;20051;-73
2023/09/17 03:47:26;;;;;;;3.95;2.30;;;13.00;99.90;;;;;;5055531;28;20033;-72
2023/09/17 03:49:52;;;;;;;4.75;2.17;;;12.90;99.90;;;;;;5073171;28;20017;-72
2023/09/17 03:52:18;;;;;;;3.40;2.22;;;12.90;99.90;;;;;;5055452;28;20078;-73
2023/09/17 03:54:43;;;;;;;4.65;2.30;;;12.90;99.90;;;;;;5073613;28;20023;-73
2023/09/17 03:57:09;;;;;;;4.30;2.63;;;12.90;99.90;;;;;;5073111;28;20431;-73
2023/09/17 03:59:34;;;;;;;4.22;2.75;;;12.90;99.90;;;;;;5073071;28;20549;-73
2023/09/17 04:02:00;;;;;;;4.15;2.05;;;12.80;99.90;;;;;;5073735;28;20049;-72
2023/09/17 04:04:26;;;;;;;3.88;2.60;;;12.80;99.90;;;;;;5058315;28;20527;-73
2023/09/17 04:06:52;;;;;;;3.67;2.33;;;12.80;99.90;;;;;;5077863;28;20485;-73
2023/09/17 04:09:18;;;;;;;4.47;2.28;;;12.80;99.90;;;;;;5077895;28;20106;-73
2023/09/17 04:11:43;;;;;;;6.55;2.38;;;12.80;99.90;;;;;;5077568;28;20420;-72
2023/09/17 04:14:09;;;;;;;5.78;2.70;;;12.80;99.90;;;;;;5077111;28;20122;-73
2023/09/17 04:16:35;;;;;;;4.30;2.28;;;12.70;99.90;;;;;;5077124;28;20409;-73
2023/09/17 04:19:01;;;;;;;3.55;2.47;;;12.60;99.90;;;;;;5059590;28;20090;-73
2023/09/17 04:21:26;;;;;;;5.53;2.58;;;12.60;99.90;;;;;;5059050;28;20503;-73
2023/09/17 04:23:52;;;;;;;5.35;2.60;;;12.60;99.90;;;;;;5076835;28;20389;-72
2023/09/17 04:26:19;;;;;;;4.22;2.28;;;12.50;99.90;;;;;;5076714;28;20090;-73
2023/09/17 04:28:46;;;;;;;5.07;2.35;;;12.50;99.90;;;;;;5059438;28;20032;-73
2023/09/17 04:31:12;;;;;;;3.17;2.22;;;12.50;99.90;;;;;;5059028;28;20028;-73
2023/09/17 04:33:37;;;;;;;3.63;2.40;;;12.50;99.90;;;;;;5076808;28;20032;-73
2023/09/17 04:36:04;;;;;;;3.85;2.40;;;12.50;99.90;;;;;;5076583;28;20445;-73
2023/09/17 04:38:29;;;;;;;4.43;2.35;;;12.50;99.90;;;;;;5076439;28;20047;-73
2023/09/17 04:40:55;;;;;;;3.78;2.53;;;12.50;99.90;;;;;;5076873;28;20021;-72
2023/09/17 04:43:23;;;;;;;3.50;2.30;;;12.50;99.90;;;;;;5058494;28;20021;-72
2023/09/17 04:45:48;;;;;;;3.13;2.45;;;12.50;99.90;;;;;;5076196;28;20052;-72
2023/09/17 04:48:16;;;;;;;3.72;2.63;;;12.50;99.90;;;;;;5076653;28;20087;-72
2023/09/17 04:50:43;;;;;;;4.03;2.85;;;12.50;99.90;;;;;;5076161;28;20081;-72
2023/09/17 04:53:10;;;;;;;3.40;2.45;;;12.50;99.90;;;;;;5076418;28;20064;-72
2023/09/17 04:55:36;;;;;;;3.90;2.40;;;12.50;99.90;;;;;;5058629;28;20401;-72
2023/09/17 04:58:02;;;;;;;3.60;2.50;;;12.40;99.90;;;;;;5058415;28;20035;-72
2023/09/17 05:00:28;;;;;;;3.55;2.30;;;12.40;99.90;;;;;;5076199;28;20103;-72
2023/09/17 05:02:54;;;;;;;2.97;2.28;;;12.40;99.90;;;;;;5076107;28;20020;-72
2023/09/17 05:05:20;;;;;;;3.85;2.30;;;12.40;99.90;;;;;;5076019;28;20024;-72
2023/09/17 05:07:48;;;;;;;4.82;2.60;;;12.40;99.90;;;;;;5075932;28;20553;-73
2023/09/17 05:10:15;;;;;;;6.03;2.78;;;12.30;99.90;;;;;;5075363;28;20493;-74
2023/09/17 05:12:41;;;;;;;5.72;2.90;;;12.20;99.90;;;;;;5056660;28;20028;-72
2023/09/17 05:15:07;;;;;;;5.00;2.70;;;12.10;99.90;;;;;;5055709;28;20025;-72
2023/09/17 05:17:33;;;;;;;4.65;2.45;;;12.10;99.90;;;;;;5037285;28;20040;-73
2023/09/17 05:19:59;;;;;;;3.35;2.10;;;12.00;99.90;;;;;;5055310;28;20029;-72
2023/09/17 05:22:24;;;;;;;3.30;2.30;;;12.10;99.90;;;;;;5055068;28;20174;-73
2023/09/17 05:24:50;;;;;;;4.60;2.38;;;12.10;99.90;;;;;;5037903;28;20021;-72
2023/09/17 05:27:16;;;;;;;4.07;2.38;;;12.10;99.90;;;;;;5050164;28;20083;-73
2023/09/17 05:29:43;;;;;;;4.53;2.97;;;12.10;99.90;;;;;;5037462;28;20064;-73
2023/09/17 05:32:09;;;;;;;6.80;4.45;;;12.10;99.90;;;;;;5055160;28;20040;-73
2023/09/17 05:34:34;;;;;;;6.75;4.18;;;12.10;99.90;;;;;;5049964;28;20373;-73
2023/09/17 05:37:00;;;;;;;6.85;3.30;;;12.10;99.90;;;;;;5054728;28;20025;-72
2023/09/17 05:39:26;;;;;;;4.28;3.00;;;12.10;99.90;;;;;;5055091;28;20071;-72
2023/09/17 05:41:54;;;;;;;4.50;2.78;;;12.10;99.90;;;;;;5037242;28;20025;-73
2023/09/17 05:44:20;;;;;;;3.30;2.15;;;12.20;99.90;;;;;;5035061;28;20060;-73
2023/09/17 05:46:46;;;;;;;4.05;2.50;;;12.20;99.90;;;;;;5043287;28;20037;-76
2023/09/17 05:49:11;;;;;;;4.20;2.75;;;12.20;99.90;;;;;;5033774;28;20033;-76
2023/09/17 05:51:37;;;;;;;4.60;3.00;;;12.30;99.90;;;;;;5047259;28;20029;-76
2023/09/17 05:54:03;;;;;;;4.57;3.08;;;12.30;99.90;;;;;;5054199;28;20488;-76
2023/09/17 05:56:28;;;;;;;5.07;3.22;;;12.40;99.90;;;;;;5053938;28;20032;-76
2023/09/17 05:58:54;;;;;;;4.57;3.00;;;12.40;99.90;;;;;;5054397;28;20560;-76
2023/09/17 06:01:19;;;;;;;4.30;3.30;;;12.40;99.90;;;;;;5037136;28;20105;-77
2023/09/17 06:03:45;;;;;;;6.40;3.45;;;12.50;99.90;;;;;;5054099;28;20056;-76
2023/09/17 06:06:11;;;;;;;4.43;3.13;;;12.50;99.90;;;;;;5037020;28;20021;-76
2023/09/17 06:08:37;;;;;;;3.97;3.00;;;12.60;99.90;;;;;;5054119;28;20051;-76
2023/09/17 06:11:03;;;;;;;3.97;2.80;;;12.60;99.90;;;;;;5054720;28;20435;-76
2023/09/17 06:13:29;;;;;;;3.85;2.75;;;12.70;99.90;;;;;;5036140;28;20033;-76
2023/09/17 06:15:54;;;;;;;4.65;3.03;;;12.70;99.90;;;;;;5054656;28;20037;-76
2023/09/17 06:18:20;;;;;;;3.72;2.40;;;12.80;99.90;;;;;;5054547;28;20029;-76
2023/09/17 06:20:46;;;;;;;4.47;2.88;;;12.80;99.90;;;;;;5054605;28;20524;-76
2023/09/17 06:23:12;;;;;;;5.32;3.00;;;12.90;99.90;;;;;;5053962;28;20049;-76
2023/09/17 06:25:37;;;;;;;4.72;3.15;;;12.90;99.90;;;;;;5053153;28;20064;-76
2023/09/17 06:28:04;;;;;;;5.25;3.38;;;13.00;99.90;;;;;;5019624;28;20542;-76
2023/09/17 06:30:29;;;;;;;6.32;3.20;;;13.10;99.90;;;;;;5036227;28;20078;-77
2023/09/17 06:32:55;;;;;;;4.63;3.08;;;13.10;99.90;;;;;;5052972;28;20033;-76
2023/09/17 06:35:21;;;;;;;5.18;2.97;;;13.20;99.90;;;;;;5054106;28;20389;-76
2023/09/17 06:37:46;;;;;;;6.93;3.25;;;13.30;99.90;;;;;;5035286;28;20111;-76
2023/09/17 06:40:14;;;;;;;5.40;3.55;;;13.30;99.90;;;;;;5054126;28;20056;-76
2023/09/17 06:42:40;;;;;;;4.90;3.03;;;13.30;99.90;;;;;;5053066;28;20025;-76
2023/09/17 06:45:06;;;;;;;5.28;3.53;;;13.40;99.90;;;;;;5053104;28;20029;-76
2023/09/17 06:47:32;;;;;;;6.82;3.65;;;13.40;99.90;;;;;;5053606;28;20032;-76
2023/09/17 06:49:58;;;;;;;5.90;3.75;;;13.40;99.90;;;;;;5035227;28;20025;-75
2023/09/17 06:52:23;;;;;;;6.07;3.80;;;13.50;99.90;;;;;;5036450;28;20079;-76
2023/09/17 06:54:50;;;;;;;6.72;4.30;;;13.60;99.90;;;;;;5054280;28;20028;-76
2023/09/17 06:57:15;;;;;;;6.57;4.35;;;13.60;99.90;;;;;;5036066;28;20025;-76
2023/09/17 06:59:41;;;;;;;9.25;5.35;;;13.60;99.90;;;;;;5053890;28;20032;-76
2023/09/17 07:02:07;;;;;;;6.72;4.70;;;13.70;99.90;;;;;;5036321;28;20112;-76
2023/09/17 07:04:33;;;;;;;8.10;4.50;;;13.80;99.90;;;;;;5036774;28;20030;-76
2023/09/17 07:07:00;;;;;;;8.07;4.55;;;13.90;99.90;;;;;;5036501;28;20598;-76
2023/09/17 07:09:27;;;;;;;5.35;4.13;;;14.00;99.90;;;;;;5037165;28;20035;-76
2023/09/17 07:11:53;;;;;;;6.93;3.60;;;14.10;99.90;;;;;;5054442;28;20036;-76
2023/09/17 07:14:19;;;;;;;6.82;3.58;;;14.20;99.90;;;;;;5054305;28;20029;-76
2023/09/17 07:16:44;;;;;;;5.72;4.03;;;14.20;99.90;;;;;;5019883;28;20040;-76
2023/09/17 07:19:10;;;;;;;7.25;5.03;;;14.20;99.90;;;;;;5054074;28;20061;-76
2023/09/17 07:21:36;;;;;;;8.55;4.60;;;14.40;99.90;;;;;;5054235;28;20100;-76
2023/09/17 07:24:01;;;;;;;7.45;5.18;;;14.40;99.90;;;;;;5054127;28;20017;-76
2023/09/17 07:26:28;;;;;;;5.78;4.57;;;14.50;99.90;;;;;;5053946;28;20507;-76
2023/09/17 07:28:53;;;;;;;5.93;4.30;;;14.70;99.90;;;;;;5036443;28;20117;-76
2023/09/17 07:31:19;;;;;;;5.82;4.45;;;14.80;99.90;;;;;;5053745;28;20061;-76
2023/09/17 07:33:45;;;;;;;6.35;4.65;;;14.90;99.90;;;;;;5053894;28;20025;-76
2023/09/17 07:36:11;;;;;;;6.78;4.90;;;14.90;99.90;;;;;;5019521;28;20496;-76
2023/09/17 07:38:37;;;;;;;7.53;4.53;;;15.00;99.90;;;;;;5035164;28;20075;-76
2023/09/17 07:41:02;;;;;;;6.13;4.30;;;15.10;99.90;;;;;;5036635;28;20465;-76
2023/09/17 07:43:28;;;;;;;6.57;5.00;;;15.20;99.90;;;;;;5054010;28;20037;-76
2023/09/17 07:45:54;;;;;;;7.40;5.03;;;15.30;99.90;;;;;;5053957;28;20108;-76
2023/09/17 07:48:24;;;;;;;6.80;4.65;;;15.40;99.90;;;;;;5053721;28;20044;-76
2023/09/17 07:51:00;;;;;;;7.82;6.03;;;15.50;99.90;;;;;;5037001;28;20033;-76
2023/09/17 07:53:26;;;;;;;10.15;6.70;;;15.60;99.90;;;;;;5054035;28;20388;-76
2023/09/17 07:55:52;;;;;;;9.32;7.40;;;15.70;99.90;;;;;;5054190;28;20020;-76
2023/09/17 07:58:18;;;;;;;7.57;6.38;;;15.80;99.90;;;;;;5036840;28;20029;-76
2023/09/17 08:00:45;;;;;;;8.30;6.35;;;16.00;99.90;;;;;;5069781;28;20378;-76
2023/09/17 08:03:17;;;;;;;6.90;5.75;;;16.10;99.90;;;;;;5053859;28;20025;-76
2023/09/17 08:05:52;;;;;;;8.73;5.95;;;16.20;99.90;;;;;;5053731;28;20040;-76
2023/09/17 08:08:18;;;;;;;11.02;7.25;;;16.30;99.90;;;;;;5053752;28;20033;-76
2023/09/17 08:10:44;;;;;;;7.78;6.13;;;16.50;99.90;;;;;;5054196;28;20082;-76
2023/09/17 08:13:09;;;;;;;12.50;9.35;;;16.60;99.90;;;;;;5053591;28;20029;-76
2023/09/17 08:15:35;;;;;;;11.43;9.27;;;16.80;99.90;;;;;;5053426;28;20033;-76
2023/09/17 08:18:01;;;;;;;11.43;8.05;;;16.90;99.90;;;;;;5035723;28;20040;-76
2023/09/17 08:20:27;;;;;;;8.73;6.80;;;17.00;99.90;;;;;;5053640;28;20053;-76
2023/09/17 08:22:53;;;;;;;9.93;8.15;;;17.10;99.90;;;;;;5053757;28;20060;-76
2023/09/17 08:25:19;;;;;;;10.85;8.77;;;17.30;99.90;;;;;;5053618;28;20057;-76
2023/09/17 08:27:47;;;;;;;12.55;9.98;;;17.40;99.90;;;;;;5053903;28;20418;-76
2023/09/17 08:30:13;;;;;;;10.65;8.30;;;17.60;99.90;;;;;;5053616;28;20144;-76
2023/09/17 08:32:43;;;;;;;10.32;8.07;;;17.80;99.90;;;;;;5053767;28;20025;-76
2023/09/17 08:35:11;;;;;;;8.13;6.15;;;17.90;99.90;;;;;;5053461;28;20035;-76
2023/09/17 08:37:38;;;;;;;8.90;7.53;;;18.00;99.90;;;;;;5053320;28;20025;-76
2023/09/17 08:40:14;;;;;;;11.15;8.60;;;18.10;99.90;;;;;;5053463;28;20026;-76
2023/09/17 08:42:45;;;;;;;13.25;9.07;;;18.20;99.90;;;;;;5035436;28;20025;-76
2023/09/17 08:45:12;;;;;;;11.88;8.77;;;18.20;99.90;;;;;;5036037;28;20443;-76
2023/09/17 08:47:38;;;;;;;15.30;10.57;;;18.40;99.90;;;;;;5053514;28;20040;-76
2023/09/17 08:50:07;;;;;;;10.35;8.18;;;18.40;99.90;;;;;;5054872;28;20029;-76
2023/09/17 08:52:35;;;;;;;12.65;10.90;;;18.60;99.90;;;;;;5056834;28;20017;-76
2023/09/17 08:55:02;;;;;;;13.18;10.38;;;18.70;99.90;;;;;;5038674;28;20017;-76
2023/09/17 08:57:30;;;;;;;10.77;8.38;;;18.90;99.90;;;;;;5056602;28;20025;-76
2023/09/17 09:00:09;;;;;;;8.80;6.88;;;19.10;99.90;;;;;;5056485;28;20427;-76
2023/09/17 09:02:51;;;;;;;11.38;6.85;;;19.40;99.90;;;;;;5056246;28;20392;-76
2023/09/17 09:05:18;;;;;;;7.30;5.45;;;19.60;99.90;;;;;;5056953;28;20468;-76
2023/09/17 09:07:44;;;;;;;5.90;4.82;;;19.70;99.90;;;;;;5039570;28;20467;-76
2023/09/17 09:10:13;;;;;;;5.05;4.50;;;19.80;99.90;;;;;;5057067;28;20027;-76
2023/09/17 09:12:39;;;;;;;5.22;4.13;;;19.90;99.90;;;;;;5039304;28;20027;-76
2023/09/17 09:15:07;;;;;;;4.60;3.85;;;20.00;99.90;;;;;;5056851;28;20091;-76
2023/09/17 09:17:32;;;;;;;5.50;3.90;;;20.10;99.90;;;;;;5057423;28;20032;-76
2023/09/17 09:19:58;;;;;;;5.20;3.70;;;20.10;99.90;;;;;;5040331;28;20017;-76
2023/09/17 09:22:25;;;;;;;5.38;3.55;;;20.20;99.90;;;;;;5040772;28;20029;-76
2023/09/17 09:24:51;;;;;;;4.95;3.67;;;20.30;99.90;;;;;;5057946;28;20021;-76
2023/09/17 09:27:17;;;;;;;5.25;3.80;;;20.40;99.90;;;;;;5058558;28;20033;-76
2023/09/17 09:29:43;;;;;;;3.72;3.10;;;20.50;99.90;;;;;;5057692;28;20500;-76
2023/09/17 09:32:10;;;;;;;5.35;3.20;;;20.60;99.90;;;;;;5057576;28;20036;-76
2023/09/17 09:34:41;;;;;;;5.97;3.30;;;20.70;99.90;;;;;;5055997;28;20025;-74
2023/09/17 09:37:08;;;;;;;4.57;2.83;;;20.90;99.90;;;;;;5056421;28;20487;-75
2023/09/17 09:39:37;;;;;;;4.00;2.88;;;21.00;99.90;;;;;;5055669;28;20102;-74
2023/09/17 09:42:08;;;;;;;3.90;2.97;;;21.20;99.90;;;;;;5055181;28;20355;-73
2023/09/17 09:44:36;;;;;;;5.00;2.95;;;21.20;99.90;;;;;;5054273;28;20111;-74
2023/09/17 09:47:02;;;;;;;5.10;2.75;;;21.20;99.90;;;;;;5037568;28;20406;-74
2023/09/17 09:49:38;;;;;;;5.25;3.17;;;21.30;99.90;;;;;;5055614;28;20470;-74
2023/09/17 09:52:04;;;;;;;5.07;3.25;;;21.30;99.90;;;;;;5055012;28;20116;-74
2023/09/17 09:54:29;;;;;;;5.53;3.10;;;21.40;99.90;;;;;;5055645;28;20487;-74
2023/09/17 09:56:55;;;;;;;3.63;2.85;;;21.50;99.90;;;;;;5056130;28;20500;-74
2023/09/17 09:59:21;;;;;;;3.97;3.13;;;21.60;99.90;;;;;;5055971;28;20551;-74
2023/09/17 10:01:47;;;;;;;3.92;3.28;;;21.70;99.90;;;;;;5055048;28;20033;-74
2023/09/17 10:04:14;;;;;;;4.55;2.65;;;21.90;99.90;;;;;;5056175;28;20133;-74
2023/09/17 10:06:40;;;;;;;6.50;2.95;;;22.00;99.90;;;;;;5055294;28;20100;-74
2023/09/17 10:09:07;;;;;;;5.90;3.28;;;22.10;99.90;;;;;;5058003;28;20027;-74
2023/09/17 10:11:34;;;;;;;3.88;3.00;;;22.20;99.90;;;;;;5039051;28;20029;-75
2023/09/17 10:14:04;;;;;;;4.35;3.15;;;22.30;99.90;;;;;;5055409;28;20057;-74
2023/09/17 10:16:31;;;;;;;3.73;2.83;;;22.30;99.90;;;;;;5055585;28;20025;-75
2023/09/17 10:18:58;;;;;;;4.22;2.80;;;22.40;99.90;;;;;;5055041;28;20025;-74
2023/09/17 10:21:26;;;;;;;4.00;3.00;;;22.50;99.90;;;;;;5054386;28;20039;-73
2023/09/17 10:23:54;;;;;;;5.55;3.22;;;22.60;99.90;;;;;;5053353;28;20017;-73
2023/09/17 10:26:22;;;;;;;3.63;2.75;;;22.80;99.90;;;;;;5053733;28;20021;-74
2023/09/17 10:28:49;;;;;;;6.53;2.80;;;22.90;99.90;;;;;;5053590;28;20171;-74
2023/09/17 10:31:16;;;;;;;3.70;2.90;;;23.00;99.90;;;;;;5053644;28;20056;-73
2023/09/17 10:33:47;;;;;;;4.18;2.95;;;23.00;99.90;;;;;;5053471;28;20025;-73
2023/09/17 10:36:14;;;;;;;5.72;3.17;;;23.00;99.90;;;;;;5054202;28;20033;-74
2023/09/17 10:38:41;;;;;;;4.65;2.80;;;23.10;99.90;;;;;;5036353;28;20029;-74
2023/09/17 10:41:08;;;;;;;5.65;2.85;;;23.20;99.90;;;;;;5054559;28;20025;-75
2023/09/17 10:43:38;;;;;;;5.28;3.22;;;23.20;99.90;;;;;;5054451;28;20017;-74
2023/09/17 10:46:08;;;;;;;3.90;2.73;;;23.20;99.90;;;;;;5054503;28;20024;-74
2023/09/17 10:48:34;;;;;;;3.80;2.70;;;23.30;99.90;;;;;;5055222;28;20102;-74
2023/09/17 10:51:00;;;;;;;4.25;2.83;;;23.40;99.90;;;;;;5054246;28;20108;-74
2023/09/17 10:53:27;;;;;;;3.92;3.22;;;23.50;99.90;;;;;;5054629;28;20092;-74
2023/09/17 10:56:19;;;;;;;3.90;2.90;;;23.70;99.90;;;;;;5054707;28;20025;-74
2023/09/17 10:58:48;;;;;;;4.55;2.92;;;23.80;99.90;;;;;;5015582;28;20132;-75
2023/09/17 11:01:17;;;;;;;5.03;3.58;;;24.00;99.90;;;;;;5054972;28;20021;-74
2023/09/17 11:03:48;;;;;;;3.92;2.78;;;24.10;99.90;;;;;;5054687;28;20024;-74
2023/09/17 11:06:16;;;;;;;;;;;24.20;99.90;;;;;;5054604;28;20472;-74
2023/09/17 11:08:46;;;;;;;3.13;2.60;;;24.20;99.90;;;;;;5054123;28;19954;-74
2023/09/17 11:11:16;;;;;;;3.67;2.85;;;24.20;99.90;;;;;;5054384;28;20610;-75
2023/09/17 11:13:46;;;;;;;4.00;3.03;;;24.20;99.90;;;;;;5037056;28;20025;-74
2023/09/17 11:16:25;;;;;;;6.57;2.97;;;24.30;99.90;;;;;;5054971;28;20381;-74
2023/09/17 11:19:05;;;;;;;3.42;2.88;;;24.40;99.60;;;;;;5036664;28;20477;-75
2023/09/17 11:21:34;;;;;;;5.40;2.85;;;24.50;99.10;;;;;;5054529;28;20078;-76
2023/09/17 11:24:05;;;;;;;4.85;2.90;;;24.60;99.80;;;;;;5054736;28;20017;-76
2023/09/17 11:26:33;;;;;;;4.70;2.67;;;24.70;99.70;;;;;;5053802;28;20025;-76
2023/09/17 11:28:59;;;;;;;4.20;2.33;;;25.00;98.50;;;;;;5037517;28;20033;-76
2023/09/17 11:31:28;;;;;;;3.67;2.47;;;25.20;95.60;;;;;;5053718;28;20025;-76
2023/09/17 11:33:57;;;;;;;3.72;2.30;;;25.40;95.90;;;;;;5053818;28;20096;-76
2023/09/17 11:36:25;;;;;;;2.40;1.95;;;25.50;95.00;;;;;;5053646;28;20059;-76
2023/09/17 11:38:52;;;;;;;3.15;2.08;;;25.70;92.90;;;;;;5053973;28;20057;-75
2023/09/17 11:41:28;;;;;;;3.63;1.98;;;25.80;92.40;;;;;;5036644;28;20484;-75
2023/09/17 11:43:54;;;;;;;2.90;1.88;;;26.00;92.10;;;;;;5053695;28;20464;-75
2023/09/17 11:46:20;;;;;;;2.95;2.00;;;26.10;91.80;;;;;;5054524;28;20057;-75
2023/09/17 11:48:47;;;;;;;2.42;1.77;;;26.30;91.70;;;;;;5054032;28;20033;-75
2023/09/17 11:51:21;;;;;;;2.72;1.90;;;26.40;90.10;;;;;;5054019;28;20108;-74
2023/09/17 11:53:50;;;;;;;3.38;2.22;;;26.50;88.80;;;;;;5053641;28;20033;-72
2023/09/17 11:56:17;;;;;;;3.10;2.20;;;26.60;90.20;;;;;;5053339;28;20059;-72
2023/09/17 11:58:43;;;;;;;3.25;2.25;;;26.80;90.00;;;;;;5052705;28;20032;-72
2023/09/17 12:01:10;;;;;;;2.97;2.10;;;26.90;89.60;;;;;;5052895;28;20103;-72
2023/09/17 12:03:37;;;;;;;3.13;1.83;;;27.00;89.00;;;;;;5053212;28;20095;-72
2023/09/17 12:06:04;;;;;;;2.60;1.90;;;27.10;86.60;;;;;;5052336;28;20021;-72
2023/09/17 12:08:34;;;;;;;2.35;1.50;;;27.10;83.60;;;;;;5053184;28;20512;-72
2023/09/17 12:11:06;;;;;;;3.13;1.80;;;27.10;85.40;;;;;;5053682;28;20025;-72
2023/09/17 12:13:33;;;;;;;5.40;2.10;;;27.10;86.00;;;;;;5035384;28;20033;-72
2023/09/17 12:16:01;;;;;;;5.10;1.80;;;27.10;88.00;;;;;;5053967;28;20559;-72
2023/09/17 12:18:28;;;;;;;4.70;2.08;;;27.10;88.50;;;;;;5052946;28;20155;-72
2023/09/17 12:20:58;;;;;;;2.10;1.75;;;27.10;87.90;;;;;;5052495;28;20098;-72
2023/09/17 12:23:41;;;;;;;2.50;1.70;;;27.20;89.50;;;;;;5052633;28;20025;-72
2023/09/17 12:26:07;;;;;;;2.55;1.90;;;27.30;87.90;;;;;;5055036;28;20022;-72
2023/09/17 12:28:33;;;;;;;2.40;1.90;;;27.40;89.10;;;;;;5038514;28;20036;-72
2023/09/17 12:31:01;;;;;;;2.80;1.80;;;27.50;88.20;;;;;;5056332;28;20033;-72
2023/09/17 12:33:28;;;;;;;3.55;1.90;;;27.60;84.10;;;;;;5056572;28;20072;-72
2023/09/17 12:35:56;;;;;;;3.20;1.90;;;27.60;84.00;;;;;;5057061;28;20033;-72
2023/09/17 12:38:22;;;;;;;2.67;1.70;;;27.60;84.60;;;;;;5056347;28;20021;-72
2023/09/17 12:40:48;;;;;;;3.70;1.70;;;27.70;82.60;;;;;;5056385;28;20025;-72
2023/09/17 12:43:14;;;;;;;2.28;1.52;;;27.80;82.30;;;;;;5055086;28;20025;-72
2023/09/17 12:45:41;;;;;;;3.08;1.80;;;27.80;85.30;;;;;;5055758;28;20108;-72